createdAt,value
2022-10-23T00:00:33.947Z,1003.8
2022-10-23T00:01:35.803Z,1003.8
2022-10-23T00:02:37.874Z,1003.9
2022-10-23T00:03:39.804Z,1003.8
2022-10-23T00:04:41.824Z,1003.8
2022-10-23T00:05:43.903Z,1003.8
2022-10-23T00:06:45.888Z,1003.7
2022-10-23T00:07:47.823Z,1003.7
2022-10-23T00:08:50.386Z,1003.7
2022-10-23T00:09:52.003Z,1003.7
2022-10-23T00:10:53.802Z,1003.7
2022-10-23T00:11:56.042Z,1003.7
2022-10-23T00:12:57.962Z,1003.7
2022-10-23T00:13:59.755Z,1003.8
2022-10-23T00:15:01.888Z,1003.7
2022-10-23T00:16:03.915Z,1003.7
2022-10-23T00:17:05.873Z,1003.7
2022-10-23T00:18:07.842Z,1003.7
2022-10-23T00:19:10.322Z,1003.6
2022-10-23T00:20:11.843Z,1003.7
2022-10-23T00:21:13.781Z,1003.7
2022-10-23T00:22:15.844Z,1003.7
2022-10-23T00:23:17.966Z,1003.7
2022-10-23T00:24:20.084Z,1003.7
2022-10-23T00:25:22.383Z,1003.8
2022-10-23T00:26:23.923Z,1003.8
2022-10-23T00:27:26.552Z,1003.3
2022-10-23T00:28:27.824Z,1003.7
2022-10-23T00:29:29.824Z,1003.7
2022-10-23T00:30:31.874Z,1003.8
2022-10-23T00:31:33.823Z,1003.8
2022-10-23T00:32:35.896Z,1003.8
2022-10-23T00:33:37.803Z,1003.9
2022-10-23T00:34:39.802Z,1003.8
2022-10-23T00:35:42.263Z,1003.8
2022-10-23T00:36:43.844Z,1003.7
2022-10-23T00:37:45.903Z,1003.8
2022-10-23T00:38:48.286Z,1003.8
2022-10-23T00:39:49.903Z,1003.7
2022-10-23T00:40:51.846Z,1003.7
2022-10-23T00:41:53.843Z,1003.7
2022-10-23T00:42:55.882Z,1003.7
2022-10-23T00:43:57.965Z,1003.7
2022-10-23T00:44:59.789Z,1003.7
2022-10-23T00:46:01.887Z,1003.7
2022-10-23T00:47:03.863Z,1003.7
2022-10-23T00:48:05.843Z,1003.7
2022-10-23T00:49:07.917Z,1003.7
2022-10-23T00:50:09.824Z,1003.7
2022-10-23T00:51:11.802Z,1003.7
2022-10-23T00:52:13.822Z,1003.7
2022-10-23T00:53:17.102Z,1003.7
2022-10-23T00:54:23.787Z,1003.7
2022-10-23T00:55:20.808Z,1003.7
2022-10-23T00:56:22.743Z,1003.7
2022-10-23T00:57:24.901Z,1003.7
2022-10-23T00:58:27.124Z,1003.7
2022-10-23T00:59:28.824Z,1003.7
2022-10-23T01:00:30.942Z,1003.7
2022-10-23T01:01:33.064Z,1003.8
2022-10-23T01:02:35.043Z,1003.8
2022-10-23T01:03:36.863Z,1003.8
2022-10-23T01:04:38.883Z,1003.8
2022-10-23T01:05:40.874Z,1003.8
2022-10-23T01:06:42.846Z,1003.7
2022-10-23T01:07:45.352Z,1003.8
2022-10-23T01:08:46.963Z,1003.8
2022-10-23T01:09:48.883Z,1003.8
2022-10-23T01:10:50.820Z,1003.8
2022-10-23T01:11:53.222Z,1003.8
2022-10-23T01:12:55.101Z,1003.9
2022-10-23T01:13:56.849Z,1003.8
2022-10-23T01:14:59.122Z,1003.8
2022-10-23T01:16:01.183Z,1003.9
2022-10-23T01:17:02.947Z,1003.8
2022-10-23T01:18:05.188Z,1003.9
2022-10-23T01:19:07.436Z,1003.8
2022-10-23T01:20:08.862Z,1003.9
2022-10-23T01:21:10.903Z,1003.9
2022-10-23T01:22:13.138Z,1003.9
2022-10-23T01:23:14.847Z,1003.9
2022-10-23T01:24:16.882Z,1003.9
2022-10-23T01:25:18.903Z,1003.9
2022-10-23T01:26:21.144Z,1003.9
2022-10-23T01:27:22.964Z,1003.6
2022-10-23T01:28:25.743Z,1003.8
2022-10-23T01:29:28.023Z,1003.9
2022-10-23T01:30:30.121Z,1003.9
2022-10-23T01:31:31.903Z,1003.9
2022-10-23T01:32:33.845Z,1003.9
2022-10-23T01:33:35.807Z,1003.9
2022-10-23T01:34:37.822Z,1003.9
2022-10-23T01:35:39.822Z,1003.9
2022-10-23T01:36:41.902Z,1003.9
2022-10-23T01:37:43.903Z,1003.9
2022-10-23T01:38:46.123Z,1003.8
2022-10-23T01:39:48.011Z,1003.9
2022-10-23T01:40:50.121Z,1003.9
2022-10-23T01:41:52.213Z,1003.8
2022-10-23T01:42:53.863Z,1003.9
2022-10-23T01:43:55.842Z,1003.9
2022-10-23T01:44:58.142Z,1003.9
2022-10-23T01:46:00.002Z,1003.9
2022-10-23T01:47:01.903Z,1003.9
2022-10-23T01:48:03.800Z,1003.9
2022-10-23T01:49:05.891Z,1004
2022-10-23T01:50:07.862Z,1004
2022-10-23T01:51:10.082Z,1004
2022-10-23T01:52:11.862Z,1003.9
2022-10-23T01:53:13.822Z,1003.9
2022-10-23T01:54:16.111Z,1004
2022-10-23T01:55:18.023Z,1004
2022-10-23T01:56:19.942Z,1004
2022-10-23T01:57:22.023Z,1004
2022-10-23T01:58:23.868Z,1004
2022-10-23T01:59:25.923Z,1004
2022-10-23T02:00:27.942Z,1003.5
2022-10-23T02:04:27.899Z,1003.9
2022-10-23T02:05:29.855Z,1003.9
2022-10-23T02:06:31.876Z,1003.9
2022-10-23T02:07:33.889Z,1003.9
2022-10-23T02:08:36.158Z,1004
2022-10-23T02:09:37.939Z,1004
2022-10-23T02:10:39.895Z,1004
2022-10-23T02:11:41.897Z,1004
2022-10-23T02:12:43.894Z,1004
2022-10-23T02:13:45.936Z,1004
2022-10-23T02:14:47.966Z,1004
2022-10-23T02:15:49.878Z,1004
2022-10-23T02:16:51.899Z,1004
2022-10-23T02:17:53.928Z,1003.9
2022-10-23T02:18:55.995Z,1004
2022-10-23T02:19:58.320Z,1004.1
2022-10-23T02:21:00.021Z,1004.1
2022-10-23T02:22:02.075Z,1004.1
2022-10-23T02:23:03.887Z,1004.1
2022-10-23T02:24:05.935Z,1004.1
2022-10-23T02:25:07.895Z,1004.1
2022-10-23T02:26:09.858Z,1004.1
2022-10-23T02:27:12.036Z,1004.1
2022-10-23T02:28:13.975Z,1004.1
2022-10-23T02:29:15.915Z,1004.1
2022-10-23T02:30:18.041Z,1004
2022-10-23T02:31:20.001Z,1004
2022-10-23T02:32:22.268Z,1004
2022-10-23T02:33:23.851Z,1004.1
2022-10-23T02:34:25.935Z,1004.1
2022-10-23T02:35:27.913Z,1004.1
2022-10-23T02:36:29.855Z,1004.1
2022-10-23T02:37:31.995Z,1004.1
2022-10-23T02:38:33.903Z,1004.1
2022-10-23T02:39:35.914Z,1004.1
2022-10-23T02:40:37.956Z,1004.1
2022-10-23T02:41:40.135Z,1004.1
2022-10-23T02:42:41.894Z,1004.1
2022-10-23T02:43:43.916Z,1004.1
2022-10-23T02:44:45.902Z,1004.1
2022-10-23T02:45:47.872Z,1004.1
2022-10-23T02:46:50.316Z,1004
2022-10-23T02:47:51.896Z,1004
2022-10-23T02:48:53.814Z,1004.1
2022-10-23T02:49:54.914Z,1004.1
2022-10-23T02:50:56.941Z,1004.1
2022-10-23T02:51:58.975Z,1004.1
2022-10-23T02:53:00.917Z,1004.1
2022-10-23T02:54:02.900Z,1004.1
2022-10-23T02:55:04.995Z,1004.1
2022-10-23T02:56:06.935Z,1004
2022-10-23T02:57:08.895Z,1004
2022-10-23T02:58:10.935Z,1004.1
2022-10-23T02:59:13.015Z,1004.1
2022-10-23T03:00:15.395Z,1004.1
2022-10-23T03:01:16.984Z,1004.1
2022-10-23T03:02:19.030Z,1004.1
2022-10-23T03:03:20.854Z,1004.1
2022-10-23T03:04:22.855Z,1004.1
2022-10-23T03:05:24.935Z,1004.1
2022-10-23T03:06:26.922Z,1004.1
2022-10-23T03:07:28.878Z,1004.1
2022-10-23T03:08:30.936Z,1004.1
2022-10-23T03:09:32.975Z,1004.2
2022-10-23T03:10:34.948Z,1004.1
2022-10-23T03:11:36.936Z,1004.1
2022-10-23T03:12:38.929Z,1004.2
2022-10-23T03:13:40.955Z,1004.2
2022-10-23T03:14:42.895Z,1004.1
2022-10-23T03:15:44.895Z,1004.2
2022-10-23T03:16:46.934Z,1004.1
2022-10-23T03:17:48.895Z,1004.1
2022-10-23T03:18:50.903Z,1004.1
2022-10-23T03:19:53.015Z,1004.1
2022-10-23T03:20:54.894Z,1004.1
2022-10-23T03:21:57.117Z,1004.1
2022-10-23T03:22:59.255Z,1004.1
2022-10-23T03:24:01.235Z,1004.1
2022-10-23T03:25:03.177Z,1004.1
2022-10-23T03:26:04.894Z,1004.1
2022-10-23T03:27:06.895Z,1004.1
2022-10-23T03:28:08.895Z,1004.1
2022-10-23T03:29:11.215Z,1004.1
2022-10-23T03:30:13.175Z,1004.1
2022-10-23T03:31:14.954Z,1004.1
2022-10-23T03:32:16.923Z,1004.1
2022-10-23T03:33:19.203Z,1004.2
2022-10-23T03:34:20.994Z,1004.2
2022-10-23T03:35:22.861Z,1004.2
2022-10-23T03:36:25.115Z,1004.2
2022-10-23T03:37:26.900Z,1004.1
2022-10-23T03:38:28.935Z,1004.1
2022-10-23T03:39:30.957Z,1004.1
2022-10-23T03:40:32.923Z,1004.1
2022-10-23T03:41:34.950Z,1004.1
2022-10-23T03:42:37.017Z,1004.1
2022-10-23T03:43:39.074Z,1004.2
2022-10-23T03:44:41.936Z,1004.1
2022-10-23T03:45:43.918Z,1004.2
2022-10-23T03:46:46.257Z,1004.2
2022-10-23T03:47:48.075Z,1004.3
2022-10-23T03:48:50.134Z,1004.2
2022-10-23T03:49:52.115Z,1004.2
2022-10-23T03:50:53.934Z,1004.2
2022-10-23T03:51:56.055Z,1004.2
2022-10-23T03:52:58.266Z,1004.2
2022-10-23T03:53:59.974Z,1004.2
2022-10-23T03:55:01.955Z,1004.2
2022-10-23T03:56:03.938Z,1004.1
2022-10-23T03:57:07.195Z,1004.1
2022-10-23T03:58:08.975Z,1004.1
2022-10-23T03:59:11.075Z,1004.1
2022-10-23T04:00:12.976Z,1004.1
2022-10-23T04:01:15.018Z,1004.1
2022-10-23T04:02:17.037Z,1004.1
2022-10-23T04:03:19.375Z,1004.1
2022-10-23T04:04:20.935Z,1004.1
2022-10-23T04:05:22.927Z,1004.1
2022-10-23T04:06:24.935Z,1004.1
2022-10-23T04:07:27.035Z,1004.1
2022-10-23T04:08:28.961Z,1004.1
2022-10-23T04:09:31.295Z,1004
2022-10-23T04:10:32.935Z,1004
2022-10-23T04:11:34.936Z,1004
2022-10-23T04:12:36.975Z,1004
2022-10-23T04:13:39.119Z,1004
2022-10-23T04:14:41.455Z,1003.9
2022-10-23T04:15:43.255Z,1004
2022-10-23T04:16:44.915Z,1003.9
2022-10-23T04:17:47.003Z,1003.9
2022-10-23T04:18:48.954Z,1003.9
2022-10-23T04:19:50.975Z,1003.9
2022-10-23T04:20:52.980Z,1003.9
2022-10-23T04:21:54.895Z,1003.9
2022-10-23T04:22:57.235Z,1003.9
2022-10-23T04:24:00.021Z,1004
2022-10-23T04:25:01.994Z,1004
2022-10-23T04:26:04.037Z,1004
2022-10-23T04:27:06.075Z,1003.9
2022-10-23T04:28:07.974Z,1004
2022-10-23T04:29:09.974Z,1004
2022-10-23T04:30:11.994Z,1004
2022-10-23T04:31:13.979Z,1004
2022-10-23T04:32:16.138Z,1004
2022-10-23T04:33:18.063Z,1004
2022-10-23T04:34:19.996Z,1004
2022-10-23T04:35:22.175Z,1004
2022-10-23T04:36:24.282Z,1004
2022-10-23T04:37:26.137Z,1003.8
2022-10-23T04:38:28.017Z,1004
2022-10-23T04:39:29.939Z,1004
2022-10-23T04:40:32.036Z,1004
2022-10-23T04:41:34.375Z,1004.2
2022-10-23T04:42:36.375Z,1004.1
2022-10-23T04:43:38.294Z,1004.1
2022-10-23T04:44:39.909Z,1004.1
2022-10-23T04:45:41.975Z,1004.1
2022-10-23T04:46:44.256Z,1004.1
2022-10-23T04:47:46.615Z,1004.1
2022-10-23T04:48:47.957Z,1004.1
2022-10-23T04:49:49.979Z,1004.2
2022-10-23T04:50:52.076Z,1004.2
2022-10-23T04:51:54.016Z,1004.1
2022-10-23T04:52:56.039Z,1004.1
2022-10-23T04:53:58.174Z,1004.2
2022-10-23T04:54:59.940Z,1004.2
2022-10-23T04:56:02.948Z,1004.2
2022-10-23T04:57:06.295Z,1004.2
2022-10-23T04:58:08.035Z,1004.2
2022-10-23T04:59:09.995Z,1004.2
2022-10-23T05:00:11.942Z,1004.2
2022-10-23T05:01:14.112Z,1004.2
2022-10-23T05:02:16.295Z,1004.2
2022-10-23T05:03:18.014Z,1004.2
2022-10-23T05:04:20.240Z,1004.2
2022-10-23T05:05:22.395Z,1004.2
2022-10-23T05:06:23.975Z,1004.2
2022-10-23T05:07:26.137Z,1004.3
2022-10-23T05:08:28.057Z,1004.2
2022-10-23T05:09:30.276Z,1004.3
2022-10-23T05:10:32.221Z,1004.3
2022-10-23T05:11:33.926Z,1004.3
2022-10-23T05:12:35.994Z,1004.3
2022-10-23T05:13:38.117Z,1003.6
2022-10-23T05:14:40.196Z,1004.2
2022-10-23T05:16:44.996Z,1004.3
2022-10-23T05:17:47.715Z,1004.3
2022-10-23T05:18:49.014Z,1004.4
2022-10-23T05:19:51.315Z,1004.3
2022-10-23T05:20:53.555Z,1004.4
2022-10-23T05:21:54.994Z,1004.4
2022-10-23T05:22:57.009Z,1004.3
2022-10-23T05:25:01.160Z,1004.4
2022-10-23T05:26:03.350Z,1004.4
2022-10-23T05:27:05.155Z,1004.4
2022-10-23T05:28:07.156Z,1004.4
2022-10-23T05:29:08.974Z,1004.5
2022-10-23T05:30:10.974Z,1004.5
2022-10-23T05:31:13.154Z,1004.4
2022-10-23T05:32:15.133Z,1004.5
2022-10-23T05:33:16.973Z,1004.5
2022-10-23T05:34:18.971Z,1004.4
2022-10-23T05:35:21.254Z,1004.4
2022-10-23T05:36:23.042Z,1004.4
2022-10-23T05:37:24.975Z,1004.4
2022-10-23T05:38:27.006Z,1004.4
2022-10-23T05:39:28.951Z,1004.4
2022-10-23T05:40:31.073Z,1004.4
2022-10-23T05:41:33.099Z,1004.4
2022-10-23T05:42:36.174Z,1004.4
2022-10-23T05:43:37.015Z,1004.4
2022-10-23T05:44:39.694Z,1004.4
2022-10-23T05:45:41.075Z,1004.4
2022-10-23T05:46:43.434Z,1004.4
2022-10-23T05:47:45.017Z,1004.4
2022-10-23T05:48:47.139Z,1004.4
2022-10-23T05:49:49.037Z,1004.4
2022-10-23T05:50:51.120Z,1004.4
2022-10-23T05:51:53.457Z,1004.4
2022-10-23T05:52:55.115Z,1004.3
2022-10-23T05:53:56.936Z,1004.3
2022-10-23T05:54:59.014Z,1004.4
2022-10-23T05:56:01.054Z,1004.3
2022-10-23T05:57:03.336Z,1004.4
2022-10-23T05:58:05.020Z,1004.3
2022-10-23T05:59:06.975Z,1004.4
2022-10-23T06:00:09.475Z,1004.3
2022-10-23T06:01:11.220Z,1004.3
2022-10-23T06:02:13.065Z,1004.3
2022-10-23T06:03:15.415Z,1004.3
2022-10-23T06:04:17.137Z,1004.3
2022-10-23T06:05:19.399Z,1004.3
2022-10-23T06:06:20.995Z,1004.3
2022-10-23T06:07:23.014Z,1004.3
2022-10-23T06:08:25.474Z,1004.3
2022-10-23T06:09:27.155Z,1004.2
2022-10-23T06:10:29.095Z,1004.2
2022-10-23T06:11:31.055Z,1004.3
2022-10-23T06:12:33.021Z,1004.3
2022-10-23T06:13:35.090Z,1004.3
2022-10-23T06:14:37.439Z,1004.3
2022-10-23T06:15:39.654Z,1004.3
2022-10-23T06:16:41.039Z,1004.3
2022-10-23T06:17:43.496Z,1003.6
2022-10-23T06:18:45.535Z,1004.3
2022-10-23T06:19:47.000Z,1004.4
2022-10-23T06:20:48.995Z,1004.5
2022-10-23T06:21:51.120Z,1004.6
2022-10-23T06:22:53.136Z,1004.5
2022-10-23T06:23:55.095Z,1004.5
2022-10-23T06:24:57.075Z,1004.5
2022-10-23T06:25:59.596Z,1004.5
2022-10-23T06:27:01.065Z,1004.5
2022-10-23T06:28:03.540Z,1004.5
2022-10-23T06:29:05.795Z,1004.5
2022-10-23T06:30:07.195Z,1004.5
2022-10-23T06:31:09.077Z,1004.5
2022-10-23T06:32:11.017Z,1004.5
2022-10-23T06:33:13.135Z,1004.4
2022-10-23T06:34:15.210Z,1004.5
2022-10-23T06:35:17.374Z,1003.8
2022-10-23T06:36:19.030Z,1004.3
2022-10-23T06:37:21.005Z,1004.5
2022-10-23T06:38:23.315Z,1004.6
2022-10-23T06:39:27.261Z,1004.5
2022-10-23T06:40:27.115Z,1004.5
2022-10-23T06:41:29.157Z,1004.6
2022-10-23T06:42:31.053Z,1004.5
2022-10-23T06:43:33.119Z,1004.6
2022-10-23T06:44:35.036Z,1004.6
2022-10-23T06:45:37.055Z,1004.7
2022-10-23T06:46:39.055Z,1004.7
2022-10-23T06:47:41.203Z,1004.6
2022-10-23T06:48:43.185Z,1004.6
2022-10-23T06:49:45.008Z,1004.7
2022-10-23T06:50:47.115Z,1004.7
2022-10-23T06:51:49.040Z,1004.7
2022-10-23T06:52:51.013Z,1004.7
2022-10-23T06:53:53.013Z,1004.7
2022-10-23T06:54:55.056Z,1004.8
2022-10-23T06:55:57.008Z,1004.7
2022-10-23T06:56:59.118Z,1004.7
2022-10-23T06:58:01.197Z,1004.7
2022-10-23T06:59:03.119Z,1004.7
2022-10-23T07:00:05.167Z,1004.7
2022-10-23T07:01:07.213Z,1004.7
2022-10-23T07:02:09.042Z,1004.7
2022-10-23T07:03:11.568Z,1004.6
2022-10-23T07:04:13.015Z,1004.6
2022-10-23T07:05:15.076Z,1004.6
2022-10-23T07:06:17.035Z,1004.6
2022-10-23T07:07:19.023Z,1004.7
2022-10-23T07:08:21.107Z,1004.7
2022-10-23T07:09:23.154Z,1004.7
2022-10-23T07:10:25.015Z,1004.6
2022-10-23T07:11:26.991Z,1004.7
2022-10-23T07:12:29.006Z,1004.7
2022-10-23T07:13:31.295Z,1004.6
2022-10-23T07:14:33.148Z,1004.6
2022-10-23T07:15:35.114Z,1004.6
2022-10-23T07:16:37.895Z,1004.6
2022-10-23T07:17:39.090Z,1004.6
2022-10-23T07:18:41.041Z,1004.6
2022-10-23T07:19:43.035Z,1004.6
2022-10-23T07:20:45.030Z,1004.6
2022-10-23T07:21:47.115Z,1004.6
2022-10-23T07:23:04.115Z,1004.6
2022-10-23T07:24:06.075Z,1004.6
2022-10-23T07:25:07.998Z,1004.6
2022-10-23T07:26:10.035Z,1004.6
2022-10-23T07:27:12.139Z,1004.6
2022-10-23T07:28:14.044Z,1004.6
2022-10-23T07:29:16.042Z,1004.6
2022-10-23T07:30:18.060Z,1004.6
2022-10-23T07:31:23.058Z,1004.6
2022-10-23T07:32:22.636Z,1004.6
2022-10-23T07:33:24.032Z,1004.6
2022-10-23T07:34:26.096Z,1004.6
2022-10-23T07:35:28.115Z,1004.6
2022-10-23T07:36:30.082Z,1004.6
2022-10-23T07:37:32.023Z,1004.7
2022-10-23T07:38:34.024Z,1004.6
2022-10-23T07:39:36.075Z,1004.7
2022-10-23T07:40:38.116Z,1004.6
2022-10-23T07:41:40.259Z,1004.7
2022-10-23T07:42:42.000Z,1004.6
2022-10-23T07:43:43.036Z,1004.6
2022-10-23T07:44:45.076Z,1004.6
2022-10-23T07:45:47.097Z,1004.6
2022-10-23T07:46:49.083Z,1004.5
2022-10-23T07:47:51.034Z,1004.5
2022-10-23T07:48:53.215Z,1004.5
2022-10-23T07:49:55.305Z,1004.5
2022-10-23T07:50:57.222Z,1004.5
2022-10-23T07:51:59.201Z,1004.4
2022-10-23T07:53:01.098Z,1004.5
2022-10-23T07:54:03.077Z,1004.6
2022-10-23T07:55:06.061Z,1004
2022-10-23T07:56:08.076Z,1004.4
2022-10-23T07:57:10.204Z,1004.5
2022-10-23T07:58:12.011Z,1004.5
2022-10-23T07:59:14.057Z,1004.5
2022-10-23T08:00:16.144Z,1004.6
2022-10-23T08:01:18.328Z,1004.5
2022-10-23T08:02:20.582Z,1004.6
2022-10-23T08:03:22.689Z,1004.6
2022-10-23T08:04:24.095Z,1004.6
2022-10-23T08:05:26.045Z,1004.7
2022-10-23T08:06:28.115Z,1004.7
2022-10-23T08:07:30.178Z,1004.6
2022-10-23T08:08:32.076Z,1004.7
2022-10-23T08:09:34.020Z,1004.7
2022-10-23T08:10:36.078Z,1004.7
2022-10-23T08:11:38.078Z,1004.7
2022-10-23T08:12:40.138Z,1004.7
2022-10-23T08:13:41.994Z,1004.8
2022-10-23T08:14:44.116Z,1004.8
2022-10-23T08:15:46.082Z,1004.8
2022-10-23T08:16:48.132Z,1004.8
2022-10-23T08:17:50.096Z,1004.8
2022-10-23T08:18:52.135Z,1004.7
2022-10-23T08:19:54.097Z,1004.3
2022-10-23T08:20:56.118Z,1004.6
2022-10-23T08:21:57.993Z,1004.2
2022-10-23T08:23:00.155Z,1004.6
2022-10-23T08:24:02.515Z,1004.7
2022-10-23T08:25:05.096Z,1004.7
2022-10-23T08:26:07.081Z,1004.7
2022-10-23T08:27:09.159Z,1004.7
2022-10-23T08:28:11.057Z,1004.7
2022-10-23T08:29:13.095Z,1004.7
2022-10-23T08:30:15.078Z,1004.7
2022-10-23T08:31:17.064Z,1004.7
2022-10-23T08:32:19.099Z,1004.7
2022-10-23T08:33:21.005Z,1004.7
2022-10-23T08:34:23.018Z,1004.7
2022-10-23T08:35:24.008Z,1004.7
2022-10-23T08:36:26.095Z,1004.7
2022-10-23T08:37:28.054Z,1004.6
2022-10-23T08:38:30.055Z,1004.7
2022-10-23T08:39:32.097Z,1004.7
2022-10-23T08:40:34.135Z,1004.7
2022-10-23T08:41:36.056Z,1004.7
2022-10-23T08:42:38.145Z,1004.7
2022-10-23T08:43:40.176Z,1004.7
2022-10-23T08:44:42.075Z,1004.7
2022-10-23T08:45:44.096Z,1004.7
2022-10-23T08:46:46.081Z,1004.7
2022-10-23T08:47:48.099Z,1004.7
2022-10-23T08:48:50.135Z,1004.7
2022-10-23T08:49:52.071Z,1004.7
2022-10-23T08:50:54.185Z,1004.7
2022-10-23T08:51:56.218Z,1004.8
2022-10-23T08:52:58.175Z,1004.8
2022-10-23T08:54:00.135Z,1004.8
2022-10-23T08:55:02.403Z,1004.8
2022-10-23T08:56:04.288Z,1004.8
2022-10-23T08:57:06.255Z,1004.8
2022-10-23T08:58:08.147Z,1004.8
2022-10-23T08:59:10.075Z,1004.8
2022-10-23T09:01:19.221Z,1004.8
2022-10-23T09:02:21.193Z,1004.8
2022-10-23T09:03:23.120Z,1004.8
2022-10-23T09:04:25.136Z,1004.8
2022-10-23T09:05:27.397Z,1004.8
2022-10-23T09:06:29.275Z,1004.8
2022-10-23T09:07:31.070Z,1004.8
2022-10-23T09:08:33.194Z,1004.8
2022-10-23T09:09:35.175Z,1004.9
2022-10-23T09:10:37.195Z,1004.4
2022-10-23T09:11:39.011Z,1004.8
2022-10-23T09:12:41.214Z,1004.8
2022-10-23T09:13:43.394Z,1004.8
2022-10-23T09:14:45.255Z,1004.8
2022-10-23T09:15:47.105Z,1004.8
2022-10-23T09:16:49.062Z,1004.8
2022-10-23T09:17:51.195Z,1004.8
2022-10-23T09:18:53.153Z,1004.9
2022-10-23T09:19:55.162Z,1004.9
2022-10-23T09:20:57.380Z,1004.9
2022-10-23T09:21:59.235Z,1004.9
2022-10-23T09:23:01.318Z,1004.8
2022-10-23T09:24:03.294Z,1004.8
2022-10-23T09:25:07.035Z,1004.8
2022-10-23T09:26:09.363Z,1004.8
2022-10-23T09:27:11.245Z,1004.8
2022-10-23T09:28:13.212Z,1004.8
2022-10-23T09:29:15.115Z,1004.7
2022-10-23T09:30:17.075Z,1004.8
2022-10-23T09:31:19.082Z,1004.8
2022-10-23T09:32:21.258Z,1004.8
2022-10-23T09:33:23.416Z,1004.8
2022-10-23T09:34:25.284Z,1004.8
2022-10-23T09:35:27.154Z,1004.8
2022-10-23T09:36:29.205Z,1004.8
2022-10-23T09:37:31.275Z,1004.8
2022-10-23T09:38:33.235Z,1004.8
2022-10-23T09:39:35.456Z,1004.8
2022-10-23T09:40:37.275Z,1004.8
2022-10-23T09:41:39.514Z,1004.9
2022-10-23T09:42:41.575Z,1004.9
2022-10-23T09:43:43.095Z,1004.9
2022-10-23T09:44:45.115Z,1004.8
2022-10-23T09:45:47.185Z,1004.8
2022-10-23T09:46:52.143Z,1004.8
2022-10-23T09:47:51.246Z,1004.8
2022-10-23T09:48:53.097Z,1004.8
2022-10-23T09:49:55.201Z,1004.8
2022-10-23T09:50:57.127Z,1004.8
2022-10-23T09:51:59.395Z,1004.9
2022-10-23T09:53:01.655Z,1004.9
2022-10-23T09:54:03.137Z,1004.9
2022-10-23T09:55:05.155Z,1004.9
2022-10-23T09:56:07.175Z,1004.9
2022-10-23T09:57:09.434Z,1004.9
2022-10-23T09:58:11.802Z,1004.8
2022-10-23T09:59:13.182Z,1004.8
2022-10-23T10:00:15.230Z,1004.8
2022-10-23T10:01:17.319Z,1004.8
2022-10-23T10:02:19.530Z,1004.8
2022-10-23T10:03:21.518Z,1004.8
2022-10-23T10:04:23.769Z,1004.8
2022-10-23T10:05:25.160Z,1004.7
2022-10-23T10:06:27.257Z,1004.3
2022-10-23T10:07:30.178Z,1004.7
2022-10-23T10:08:31.177Z,1004.7
2022-10-23T10:09:33.142Z,1004.7
2022-10-23T10:10:35.500Z,1004.7
2022-10-23T10:11:37.204Z,1004.7
2022-10-23T10:12:39.572Z,1004.7
2022-10-23T10:13:41.157Z,1004.7
2022-10-23T10:14:43.195Z,1004.8
2022-10-23T10:15:45.137Z,1004.8
2022-10-23T10:16:47.865Z,1004.8
2022-10-23T10:17:49.195Z,1004.8
2022-10-23T10:18:51.145Z,1004.8
2022-10-23T10:19:53.243Z,1004.8
2022-10-23T10:20:55.358Z,1004.8
2022-10-23T10:21:57.294Z,1004.9
2022-10-23T10:22:59.638Z,1004.8
2022-10-23T10:24:01.637Z,1004.7
2022-10-23T10:25:03.211Z,1004.7
2022-10-23T10:26:05.835Z,1004.7
2022-10-23T10:27:07.155Z,1004.7
2022-10-23T10:28:09.158Z,1004.6
2022-10-23T10:29:11.136Z,1004.6
2022-10-23T10:30:13.217Z,1004.7
2022-10-23T10:31:15.299Z,1004.7
2022-10-23T10:32:17.226Z,1004.6
2022-10-23T10:33:20.254Z,1004.6
2022-10-23T10:34:22.455Z,1004.6
2022-10-23T10:35:24.196Z,1004.6
2022-10-23T10:37:28.259Z,1004.6
2022-10-23T10:38:30.315Z,1004.6
2022-10-23T10:39:32.318Z,1004.6
2022-10-23T10:40:34.375Z,1004.6
2022-10-23T10:41:36.228Z,1004.6
2022-10-23T10:42:38.166Z,1004.5
2022-10-23T10:43:40.196Z,1004.5
2022-10-23T10:44:42.434Z,1004.5
2022-10-23T10:45:44.298Z,1004.5
2022-10-23T10:46:46.196Z,1004.5
2022-10-23T10:47:48.715Z,1004.5
2022-10-23T10:48:50.179Z,1004.5
2022-10-23T10:49:52.314Z,1004.5
2022-10-23T10:50:54.495Z,1004.5
2022-10-23T10:51:56.559Z,1004.4
2022-10-23T10:52:58.297Z,1004.4
2022-10-23T10:54:00.296Z,1004.4
2022-10-23T10:55:02.716Z,1004.4
2022-10-23T10:56:04.427Z,1004.4
2022-10-23T10:57:06.181Z,1004.4
2022-10-23T10:58:08.235Z,1004.4
2022-10-23T10:59:10.195Z,1004.3
2022-10-23T11:00:12.176Z,1004.2
2022-10-23T11:01:14.376Z,1004.3
2022-10-23T11:02:16.262Z,1004.2
2022-10-23T11:03:18.123Z,1004.3
2022-10-23T11:04:20.355Z,1004.2
2022-10-23T11:05:22.240Z,1004.2
2022-10-23T11:06:24.217Z,1004.2
2022-10-23T11:07:26.259Z,1004.1
2022-10-23T11:08:28.115Z,1004.1
2022-10-23T11:09:30.518Z,1004.2
2022-10-23T11:10:32.576Z,1004.2
2022-10-23T11:11:34.332Z,1004.2
2022-10-23T11:12:36.215Z,1004.1
2022-10-23T11:13:38.235Z,1004.1
2022-10-23T11:14:40.175Z,1004.1
2022-10-23T11:15:42.751Z,1004.1
2022-10-23T11:16:44.200Z,1004.1
2022-10-23T11:17:46.516Z,1004.1
2022-10-23T11:18:48.157Z,1004.1
2022-10-23T11:19:50.285Z,1004.1
2022-10-23T11:20:53.080Z,1004
2022-10-23T11:21:55.265Z,1004
2022-10-23T11:22:57.400Z,1004
2022-10-23T11:23:59.199Z,1004
2022-10-23T11:25:01.254Z,1003.9
2022-10-23T11:26:04.000Z,1004
2022-10-23T11:27:05.416Z,1004
2022-10-23T11:28:10.292Z,1004
2022-10-23T11:29:09.235Z,1004
2022-10-23T11:30:11.700Z,1004
2022-10-23T11:31:13.183Z,1004
2022-10-23T11:32:15.160Z,1004
2022-10-23T11:33:17.203Z,1004
2022-10-23T11:34:19.580Z,1004
2022-10-23T11:35:21.257Z,1004
2022-10-23T11:36:23.194Z,1004
2022-10-23T11:37:25.757Z,1004.1
2022-10-23T11:38:27.519Z,1004.1
2022-10-23T11:39:29.235Z,1004.1
2022-10-23T11:40:31.186Z,1004.1
2022-10-23T11:41:33.133Z,1004
2022-10-23T11:42:35.395Z,1004
2022-10-23T11:43:37.517Z,1004
2022-10-23T11:44:39.156Z,1003.7
2022-10-23T11:45:41.227Z,1003.9
2022-10-23T11:46:43.249Z,1003.9
2022-10-23T11:47:45.165Z,1004
2022-10-23T11:48:47.202Z,1003.9
2022-10-23T11:49:49.156Z,1003.9
2022-10-23T11:50:51.198Z,1003.9
2022-10-23T11:51:53.695Z,1003.9
2022-10-23T11:53:12.714Z,1003.9
2022-10-23T11:53:57.279Z,1003.9
2022-10-23T11:54:59.277Z,1003.8
2022-10-23T11:56:01.236Z,1003.8
2022-10-23T11:57:03.146Z,1003.8
2022-10-23T11:58:05.217Z,1003.8
2022-10-23T11:59:07.211Z,1003.8
2022-10-23T12:00:09.355Z,1003.7
2022-10-23T12:01:11.341Z,1003.7
2022-10-23T12:02:13.180Z,1003.7
2022-10-23T12:03:15.143Z,1003.6
2022-10-23T12:04:17.783Z,1003.7
2022-10-23T12:05:19.248Z,1003.6
2022-10-23T12:06:21.640Z,1003.7
2022-10-23T12:07:24.074Z,1003.2
2022-10-23T12:08:26.256Z,1003.5
2022-10-23T12:09:28.214Z,1003.6
2022-10-23T12:10:30.275Z,1003.6
2022-10-23T12:11:32.255Z,1003.6
2022-10-23T12:12:34.263Z,1003.6
2022-10-23T12:13:36.275Z,1003.6
2022-10-23T12:14:38.194Z,1003.6
2022-10-23T12:15:40.210Z,1003.5
2022-10-23T12:16:42.223Z,1003.5
2022-10-23T12:17:44.397Z,1003.6
2022-10-23T12:18:46.234Z,1003.5
2022-10-23T12:19:48.191Z,1003.5
2022-10-23T12:20:50.238Z,1003.5
2022-10-23T12:21:52.184Z,1003.4
2022-10-23T12:22:54.516Z,1003.4
2022-10-23T12:23:56.234Z,1003.4
2022-10-23T12:24:58.230Z,1003.4
2022-10-23T12:26:00.216Z,1003.4
2022-10-23T12:27:02.217Z,1003.4
2022-10-23T12:28:04.335Z,1003.4
2022-10-23T12:29:06.246Z,1003.3
2022-10-23T12:30:08.274Z,1003.3
2022-10-23T12:31:10.194Z,1003.4
2022-10-23T12:32:12.207Z,1003.3
2022-10-23T12:33:14.244Z,1003.3
2022-10-23T12:34:16.245Z,1003.2
2022-10-23T12:35:18.208Z,1003.2
2022-10-23T12:36:20.296Z,1003.2
2022-10-23T12:37:22.225Z,1003.1
2022-10-23T12:38:24.264Z,1003.1
2022-10-23T12:39:26.247Z,1003.1
2022-10-23T12:40:28.199Z,1003.1
2022-10-23T12:41:30.185Z,1003.1
2022-10-23T12:42:32.336Z,1003.1
2022-10-23T12:43:34.218Z,1003.1
2022-10-23T12:44:36.245Z,1003.1
2022-10-23T12:45:38.302Z,1003
2022-10-23T12:46:40.235Z,1003
2022-10-23T12:47:42.226Z,1003
2022-10-23T12:48:44.218Z,1002.9
2022-10-23T12:49:46.257Z,1002.9
2022-10-23T12:50:48.224Z,1003
2022-10-23T12:51:50.246Z,1002.9
2022-10-23T12:52:52.214Z,1002.9
2022-10-23T12:53:54.214Z,1002.9
2022-10-23T12:54:56.203Z,1002.9
2022-10-23T12:55:58.207Z,1002.9
2022-10-23T12:57:00.214Z,1002.9
2022-10-23T12:58:02.292Z,1003
2022-10-23T12:59:04.174Z,1003
2022-10-23T13:00:06.254Z,1003
2022-10-23T13:01:08.356Z,1003
2022-10-23T13:02:10.563Z,1003
2022-10-23T13:03:12.948Z,1003
2022-10-23T13:04:14.288Z,1003
2022-10-23T13:05:16.216Z,1002.9
2022-10-23T13:06:18.174Z,1003